Hovedside
METAR-TAF:

METAR-TAF

Lufthavner :

Saint-Pierre, Réunion

breddegrad: 21-20S, lengdegrad: 055-29E, høyde over havet: 52 m

Gjeldene værobservasjon

Denne rapporten ble laget for 25 minutter siden, klokken 20:30 UTC
Vind 4 kt fra Nordøst
Temperatur 27°C
Luftfuktighet 79%
Trykk 1014 hPa
Sikt 10 km eller mer

METAR: FMEP 122030Z AUTO 04004KT 9999 ///TCU 27/23 Q1014

Tid: 00:55 (20:55 UTC)

Varsel

Denne rapporten ble laget for 9 timer og 55 minutter siden, klokken 11:00 UTC
Varsel gyldig fra 12. klokken 12 UTC til 12. klokken 21 UTC
Vind 5 kt fra Sør
Sikt 10 km eller mer
Få skyer i en høyde av 2600 ft
Overskyet i en høyde av 26000 ft
Sannsynlighet 30% :
Midlertidig
fra 12. klokken 12 UTC til 12. klokken 15 UTC
Få skyer i en høyde av 3000 ft, Tårnskyer (cumulus).

TAF: FMEP 121100Z 1212/1221 18005KT 9999 FEW026 OVC260 PROB30 TEMPO 1212/1215 FEW030TCU

Værobservasjoner og værvarsel for over 4000 flyplasser (METAR- og TAF-rapporter).

Tilgjengelige stasjoner er representert av de røde og gule prikkene på kartet.

Hold musepekeren over prikken for å se navnet på stasjonen.

Klikk så for å se værobservasjoner og -varsler.

For å forandre kartet kan du klikke på den grønne knappen med svart kryss for å zoome inn, på den grønne knappen med strek for å zoome ut, eller på de grønne pilene for å se tilstøtende kart.


METAR-TAF: